createdAt,value
2019-03-26T00:01:42.021Z,20.43
2019-03-26T00:04:10.454Z,18.28
2019-03-26T00:06:38.747Z,17.27
2019-03-26T00:09:08.735Z,18.43
2019-03-26T00:11:37.323Z,19.30
2019-03-26T00:14:05.599Z,18.73
2019-03-26T00:16:34.059Z,19.24
2019-03-26T00:19:02.329Z,20.52
2019-03-26T00:21:30.600Z,20.43
2019-03-26T00:23:58.862Z,20.91
2019-03-26T00:26:27.124Z,21.57
2019-03-26T00:28:55.402Z,20.95
2019-03-26T00:31:23.652Z,20.86
2019-03-26T00:33:51.944Z,21.03
2019-03-26T00:36:20.254Z,21.15
2019-03-26T00:38:48.573Z,21.21
2019-03-26T00:41:16.804Z,21.88
2019-03-26T00:43:45.070Z,20.87
2019-03-26T00:46:14.194Z,21.73
2019-03-26T00:48:42.459Z,21.08
2019-03-26T00:51:10.722Z,21.55
2019-03-26T00:53:38.977Z,20.86
2019-03-26T00:56:07.262Z,20.70
2019-03-26T00:58:35.526Z,20.74
2019-03-26T01:01:03.796Z,20.99
2019-03-26T01:03:32.155Z,21.39
2019-03-26T01:06:00.433Z,21.30
2019-03-26T01:08:28.717Z,21.59
2019-03-26T01:10:56.982Z,21.91
2019-03-26T01:13:25.224Z,22.43
2019-03-26T01:15:53.499Z,22.08
2019-03-26T01:18:21.763Z,20.64
2019-03-26T01:20:50.024Z,21.27
2019-03-26T01:23:18.292Z,20.95
2019-03-26T01:25:46.560Z,21.78
2019-03-26T01:28:14.846Z,22.00
2019-03-26T01:30:43.135Z,21.95
2019-03-26T01:33:11.417Z,22.06
2019-03-26T01:35:39.677Z,20.99
2019-03-26T01:38:07.996Z,21.89
2019-03-26T01:40:36.567Z,20.30
2019-03-26T01:43:04.906Z,20.40
2019-03-26T01:45:33.163Z,19.91
2019-03-26T01:48:01.434Z,21.65
2019-03-26T01:50:29.782Z,21.89
2019-03-26T01:52:58.180Z,21.87
2019-03-26T01:55:26.438Z,22.75
2019-03-26T01:57:54.763Z,22.13
2019-03-26T02:00:23.104Z,21.82
2019-03-26T02:02:51.371Z,21.97
2019-03-26T02:05:19.636Z,21.85
2019-03-26T02:07:47.908Z,22.06
2019-03-26T02:10:16.241Z,21.27
2019-03-26T02:12:44.490Z,21.43
2019-03-26T02:15:15.946Z,22.19
2019-03-26T02:17:44.198Z,21.42
2019-03-26T02:20:12.450Z,21.42
2019-03-26T02:22:40.717Z,21.85
2019-03-26T02:25:09.025Z,21.26
2019-03-26T02:27:37.268Z,20.98
2019-03-26T02:30:06.391Z,21.08
2019-03-26T02:32:34.635Z,21.86
2019-03-26T02:35:17.014Z,22.31
2019-03-26T02:37:32.950Z,21.20
2019-03-26T02:40:01.223Z,21.78
2019-03-26T02:42:31.490Z,21.40
2019-03-26T02:44:59.745Z,20.66
2019-03-26T02:47:28.013Z,21.09
2019-03-26T02:49:56.337Z,21.16
2019-03-26T02:52:24.669Z,21.35
2019-03-26T02:54:52.968Z,20.80
2019-03-26T02:57:21.232Z,21.29
2019-03-26T02:59:49.508Z,19.97
2019-03-26T03:02:17.795Z,20.68
2019-03-26T03:04:46.109Z,21.07
2019-03-26T03:07:14.366Z,21.37
2019-03-26T03:09:42.631Z,20.97
2019-03-26T03:12:10.902Z,21.04
2019-03-26T03:14:39.137Z,21.49
2019-03-26T03:17:07.485Z,21.57
2019-03-26T03:19:35.725Z,21.07
2019-03-26T03:22:04.001Z,20.92
2019-03-26T03:24:32.269Z,21.20
2019-03-26T03:27:00.815Z,20.70
2019-03-26T03:29:29.076Z,21.81
2019-03-26T03:31:57.332Z,21.66
2019-03-26T03:34:25.684Z,20.05
2019-03-26T03:36:54.215Z,20.58
2019-03-26T03:39:22.499Z,20.42
2019-03-26T03:41:50.763Z,19.98
2019-03-26T03:44:19.058Z,19.35
2019-03-26T03:46:47.978Z,20.24
2019-03-26T03:49:18.647Z,20.35
2019-03-26T03:51:47.180Z,19.73
2019-03-26T03:54:15.704Z,20.39
2019-03-26T03:56:44.532Z,19.85
2019-03-26T03:59:12.807Z,19.04
2019-03-26T04:01:41.073Z,19.22
2019-03-26T04:04:09.418Z,18.66
2019-03-26T04:06:37.730Z,19.91
2019-03-26T04:09:06.061Z,18.03
2019-03-26T04:11:34.327Z,19.95
2019-03-26T04:14:02.685Z,19.69
2019-03-26T04:16:30.936Z,19.25
2019-03-26T04:19:00.538Z,18.52
2019-03-26T04:21:28.888Z,19.89
2019-03-26T04:23:58.177Z,18.30
2019-03-26T04:26:26.563Z,19.21
2019-03-26T04:28:54.879Z,20.66
2019-03-26T04:31:23.150Z,20.88
2019-03-26T04:33:51.416Z,20.65
2019-03-26T04:36:26.123Z,20.45
2019-03-26T04:38:49.665Z,20.60
2019-03-26T04:41:17.935Z,19.75
2019-03-26T04:43:46.276Z,19.82
2019-03-26T04:46:14.533Z,20.08
2019-03-26T04:48:42.792Z,19.28
2019-03-26T04:51:11.173Z,18.81
2019-03-26T04:53:39.452Z,19.07
2019-03-26T04:56:07.715Z,19.21
2019-03-26T04:58:35.987Z,19.84
2019-03-26T05:01:04.269Z,19.19
2019-03-26T05:03:32.653Z,20.22
2019-03-26T05:06:00.921Z,20.18
2019-03-26T05:08:29.184Z,20.74
2019-03-26T05:10:57.469Z,20.26
2019-03-26T05:13:25.758Z,20.00
2019-03-26T05:15:54.022Z,20.25
2019-03-26T05:18:22.304Z,19.98
2019-03-26T05:20:50.592Z,19.68
2019-03-26T05:23:18.897Z,19.30
2019-03-26T05:25:47.172Z,19.38
2019-03-26T05:28:15.430Z,19.21
2019-03-26T05:30:43.706Z,20.72
2019-03-26T05:33:12.004Z,19.40
2019-03-26T05:35:40.299Z,19.07
2019-03-26T05:38:08.659Z,18.69
2019-03-26T05:40:36.954Z,20.33
2019-03-26T05:43:05.469Z,19.87
2019-03-26T05:45:33.738Z,19.63
2019-03-26T05:48:02.007Z,20.52
2019-03-26T05:50:30.337Z,18.69
2019-03-26T05:52:58.592Z,18.21
2019-03-26T05:55:26.879Z,17.69
2019-03-26T05:57:55.157Z,18.80
2019-03-26T06:00:24.769Z,17.44
2019-03-26T06:02:53.039Z,19.01
2019-03-26T06:05:21.815Z,19.62
2019-03-26T06:07:50.090Z,18.02
2019-03-26T06:10:18.362Z,18.94
2019-03-26T06:12:46.636Z,18.62
2019-03-26T06:15:14.931Z,19.17
2019-03-26T06:17:43.234Z,20.17
2019-03-26T06:20:11.550Z,20.24
2019-03-26T06:22:39.877Z,18.72
2019-03-26T06:25:08.239Z,19.94
2019-03-26T06:27:36.506Z,19.08
2019-03-26T06:30:07.491Z,19.05
2019-03-26T06:32:35.820Z,18.58
2019-03-26T06:35:06.342Z,19.01
2019-03-26T06:37:34.594Z,18.44
2019-03-26T06:40:03.020Z,19.00
2019-03-26T06:42:31.292Z,19.62
2019-03-26T06:44:59.564Z,20.17
2019-03-26T06:47:27.848Z,19.31
2019-03-26T06:49:56.116Z,19.45
2019-03-26T06:52:24.971Z,19.88
2019-03-26T06:54:53.262Z,20.60
2019-03-26T06:57:34.618Z,20.58
2019-03-26T06:59:51.547Z,18.46
2019-03-26T07:02:19.809Z,19.02
2019-03-26T07:04:48.249Z,18.69
2019-03-26T07:07:16.720Z,17.23
2019-03-26T07:09:44.979Z,18.41
2019-03-26T07:12:13.253Z,17.95
2019-03-26T07:14:41.584Z,18.60
2019-03-26T07:17:09.889Z,17.98
2019-03-26T07:19:38.133Z,17.51
2019-03-26T07:22:06.392Z,18.70
2019-03-26T07:24:34.717Z,18.98
2019-03-26T07:27:03.044Z,19.12
2019-03-26T07:29:31.333Z,18.95
2019-03-26T07:31:59.595Z,18.71
2019-03-26T07:34:27.877Z,18.52
2019-03-26T07:36:56.133Z,18.51
2019-03-26T07:39:24.441Z,19.98
2019-03-26T07:41:52.932Z,19.69
2019-03-26T07:44:21.263Z,19.85
2019-03-26T07:46:49.554Z,20.01
2019-03-26T07:49:17.887Z,19.25
2019-03-26T07:51:46.236Z,20.00
2019-03-26T07:54:14.493Z,19.00
2019-03-26T07:56:42.769Z,20.19
2019-03-26T07:59:11.032Z,19.68
2019-03-26T08:01:39.353Z,19.22
2019-03-26T08:04:07.602Z,20.95
2019-03-26T08:06:35.872Z,19.23
2019-03-26T08:09:05.787Z,17.67
2019-03-26T08:11:34.106Z,19.00
2019-03-26T08:14:02.495Z,20.00
2019-03-26T08:16:30.740Z,19.50
2019-03-26T08:18:59.005Z,19.76
2019-03-26T08:21:27.322Z,19.44
2019-03-26T08:23:56.373Z,18.90
2019-03-26T08:26:24.682Z,21.00
2019-03-26T08:28:52.953Z,21.13
2019-03-26T08:31:21.286Z,21.16
2019-03-26T08:33:49.562Z,20.76
2019-03-26T08:36:17.936Z,21.23
2019-03-26T08:38:46.201Z,23.18
2019-03-26T08:41:14.722Z,21.88
2019-03-26T08:43:42.976Z,21.83
2019-03-26T08:46:11.266Z,22.37
2019-03-26T08:48:39.531Z,22.24
2019-03-26T08:51:07.804Z,21.24
2019-03-26T08:53:36.061Z,21.30
2019-03-26T08:56:04.357Z,21.47
2019-03-26T08:58:32.651Z,21.05
2019-03-26T09:01:01.074Z,21.45
2019-03-26T09:03:29.370Z,20.91
2019-03-26T09:05:57.644Z,22.19
2019-03-26T09:08:25.994Z,22.22
2019-03-26T09:10:54.317Z,21.95
2019-03-26T09:13:22.576Z,23.85
2019-03-26T09:15:50.872Z,24.08
2019-03-26T09:18:19.279Z,23.35
2019-03-26T09:20:47.594Z,22.64
2019-03-26T09:23:15.871Z,21.44
2019-03-26T09:25:44.155Z,19.69
2019-03-26T09:28:12.439Z,19.05
2019-03-26T09:30:40.766Z,19.38
2019-03-26T09:33:09.082Z,20.80
2019-03-26T09:35:37.351Z,19.61
2019-03-26T09:38:05.620Z,20.94
2019-03-26T09:40:33.956Z,21.24
2019-03-26T09:43:02.162Z,21.02
2019-03-26T09:45:30.507Z,20.01
2019-03-26T09:47:58.765Z,21.24
2019-03-26T09:50:35.082Z,21.13
2019-03-26T09:53:03.868Z,19.48
2019-03-26T09:55:32.143Z,21.86
2019-03-26T09:58:00.405Z,20.44
2019-03-26T10:00:30.243Z,20.33
2019-03-26T10:02:58.513Z,21.59
2019-03-26T10:05:26.839Z,20.83
2019-03-26T10:07:55.130Z,20.43
2019-03-26T10:10:23.403Z,20.46
2019-03-26T10:12:51.657Z,21.62
2019-03-26T10:15:19.920Z,21.98
2019-03-26T10:17:48.355Z,22.07
2019-03-26T10:20:16.694Z,20.18
2019-03-26T10:22:44.979Z,20.90
2019-03-26T10:25:13.238Z,21.37
2019-03-26T10:27:41.524Z,21.31
2019-03-26T10:30:12.430Z,20.56
2019-03-26T10:32:40.987Z,21.25
2019-03-26T10:35:10.501Z,21.03
2019-03-26T10:37:38.802Z,20.10
2019-03-26T10:40:08.004Z,21.87
2019-03-26T10:42:36.311Z,21.53
2019-03-26T10:45:06.330Z,20.98
2019-03-26T10:47:34.677Z,20.92
2019-03-26T10:50:03.040Z,20.18
2019-03-26T10:52:34.426Z,20.64
2019-03-26T10:55:01.294Z,20.12
2019-03-26T10:57:29.643Z,20.95
2019-03-26T10:59:57.919Z,21.43
2019-03-26T11:02:26.212Z,20.54
2019-03-26T11:04:54.483Z,21.42
2019-03-26T11:07:22.790Z,22.10
2019-03-26T11:09:51.079Z,22.62
2019-03-26T11:12:19.388Z,19.97
2019-03-26T11:14:47.681Z,20.44
2019-03-26T11:17:15.971Z,20.36
2019-03-26T11:19:46.349Z,21.09
2019-03-26T11:22:14.225Z,20.84
2019-03-26T11:24:42.504Z,21.84
2019-03-26T11:27:10.790Z,22.78
2019-03-26T11:29:39.077Z,21.81
2019-03-26T11:32:07.341Z,21.95
2019-03-26T11:34:35.702Z,22.00
2019-03-26T11:37:03.956Z,21.81
2019-03-26T11:39:33.210Z,20.83
2019-03-26T11:42:01.602Z,21.61
2019-03-26T11:44:29.958Z,21.67
2019-03-26T11:46:58.291Z,23.45
2019-03-26T11:49:26.580Z,22.10
2019-03-26T11:51:54.876Z,20.97
2019-03-26T11:54:23.165Z,21.06
2019-03-26T11:56:51.443Z,21.34
2019-03-26T11:59:19.703Z,21.42
2019-03-26T12:01:48.068Z,21.45
2019-03-26T12:04:16.319Z,22.34
2019-03-26T12:06:44.612Z,20.74
2019-03-26T12:09:17.055Z,22.03
2019-03-26T12:11:54.957Z,21.86
2019-03-26T12:14:23.216Z,21.11
2019-03-26T12:16:51.479Z,20.88
2019-03-26T12:19:19.772Z,20.48
2019-03-26T12:21:48.055Z,21.67
2019-03-26T12:24:16.345Z,21.85
2019-03-26T12:26:44.671Z,21.72
2019-03-26T12:29:12.923Z,22.91
2019-03-26T12:31:41.227Z,22.53
2019-03-26T12:34:09.575Z,22.48
2019-03-26T12:36:40.074Z,24.88
2019-03-26T12:39:07.891Z,23.65
2019-03-26T12:41:38.516Z,25.02
2019-03-26T12:44:06.193Z,23.29
2019-03-26T12:46:34.517Z,23.94
2019-03-26T12:49:02.841Z,22.65
2019-03-26T12:51:31.079Z,21.87
2019-03-26T12:53:59.367Z,23.24
2019-03-26T12:56:27.665Z,23.54
2019-03-26T12:58:55.923Z,21.50
2019-03-26T13:01:24.221Z,22.35
2019-03-26T13:03:52.546Z,23.72
2019-03-26T13:06:20.908Z,23.50
2019-03-26T13:08:49.173Z,23.53
2019-03-26T13:11:17.439Z,23.05
2019-03-26T13:13:45.729Z,22.28
2019-03-26T13:16:13.986Z,22.27
2019-03-26T13:18:42.277Z,21.62
2019-03-26T13:21:10.535Z,20.94
2019-03-26T13:23:38.862Z,20.62
2019-03-26T13:26:07.327Z,23.18
2019-03-26T13:28:35.600Z,23.80
2019-03-26T13:31:03.861Z,23.71
2019-03-26T13:33:32.130Z,22.53
2019-03-26T13:36:00.405Z,23.31
2019-03-26T13:38:28.701Z,22.88
2019-03-26T13:40:56.988Z,21.75
2019-03-26T13:43:25.251Z,21.61
2019-03-26T13:45:53.539Z,22.55
2019-03-26T13:48:21.813Z,22.58
2019-03-26T13:50:50.088Z,23.07
2019-03-26T13:53:18.369Z,22.89
2019-03-26T13:55:49.162Z,22.36
2019-03-26T13:58:17.475Z,23.00
2019-03-26T14:00:45.741Z,22.88
2019-03-26T14:03:14.003Z,20.92
2019-03-26T14:05:42.289Z,21.20
2019-03-26T14:08:10.624Z,21.78
2019-03-26T14:10:41.164Z,20.39
2019-03-26T14:13:08.964Z,20.28
2019-03-26T14:15:37.384Z,21.29
2019-03-26T14:18:05.581Z,21.58
2019-03-26T14:20:33.862Z,21.12
2019-03-26T14:23:02.120Z,21.99
2019-03-26T14:25:30.417Z,23.02
2019-03-26T14:27:58.695Z,23.08
2019-03-26T14:30:42.469Z,24.64
2019-03-26T14:33:10.724Z,24.77
2019-03-26T14:35:39.126Z,24.24
2019-03-26T14:38:07.556Z,24.43
2019-03-26T14:40:35.889Z,23.66
2019-03-26T14:43:04.471Z,22.50
2019-03-26T14:45:32.770Z,24.29
2019-03-26T14:48:01.022Z,24.48
2019-03-26T14:50:29.274Z,23.87
2019-03-26T14:52:57.547Z,25.22
2019-03-26T14:55:25.878Z,23.73
2019-03-26T14:57:54.224Z,23.32
2019-03-26T15:00:22.498Z,23.80
2019-03-26T15:02:50.765Z,25.20
2019-03-26T15:05:19.145Z,24.11
2019-03-26T15:07:47.516Z,25.50
2019-03-26T15:10:15.786Z,23.86
2019-03-26T15:12:44.072Z,23.29
2019-03-26T15:15:12.413Z,22.56
2019-03-26T15:17:40.693Z,22.24
2019-03-26T15:20:09.141Z,22.75
2019-03-26T15:22:37.403Z,23.25
2019-03-26T15:25:06.690Z,24.16
2019-03-26T15:27:34.963Z,22.55
2019-03-26T15:30:04.562Z,22.38
2019-03-26T15:32:32.821Z,22.91
2019-03-26T15:35:01.097Z,22.90
2019-03-26T15:37:29.361Z,23.15
2019-03-26T15:39:57.627Z,23.71
2019-03-26T15:42:26.977Z,23.77
2019-03-26T15:44:55.347Z,24.65
2019-03-26T15:47:27.996Z,22.67
2019-03-26T15:50:07.582Z,23.63
2019-03-26T15:52:37.555Z,23.52
2019-03-26T15:55:07.676Z,23.53
2019-03-26T15:57:35.942Z,24.11
2019-03-26T16:00:06.849Z,24.64
2019-03-26T16:02:35.159Z,23.72
2019-03-26T16:05:04.284Z,24.04
2019-03-26T16:07:33.248Z,23.11
2019-03-26T16:10:01.598Z,22.27
2019-03-26T16:12:40.546Z,22.24
2019-03-26T16:14:59.874Z,22.30
2019-03-26T16:17:28.133Z,22.28
2019-03-26T16:19:56.491Z,22.25
2019-03-26T16:22:24.782Z,22.61
2019-03-26T16:24:53.422Z,21.73
2019-03-26T16:27:21.902Z,22.82
2019-03-26T16:29:50.159Z,22.96
2019-03-26T16:32:18.431Z,22.58
2019-03-26T16:34:46.686Z,21.93
2019-03-26T16:37:14.935Z,21.86
2019-03-26T16:39:43.227Z,22.62
2019-03-26T16:42:11.482Z,22.83
2019-03-26T16:44:39.749Z,22.80
2019-03-26T16:47:08.008Z,22.99
2019-03-26T16:49:36.346Z,23.38
2019-03-26T16:52:04.684Z,23.21
2019-03-26T16:54:32.964Z,22.76
2019-03-26T16:57:01.230Z,22.68
2019-03-26T16:59:29.544Z,22.57
2019-03-26T17:01:57.812Z,21.51
2019-03-26T17:04:26.087Z,21.96
2019-03-26T17:06:54.371Z,23.10
2019-03-26T17:09:22.654Z,21.86
2019-03-26T17:12:02.528Z,22.30
2019-03-26T17:14:20.929Z,22.23
2019-03-26T17:16:49.197Z,22.23
2019-03-26T17:19:17.543Z,21.57
2019-03-26T17:21:45.890Z,20.63
2019-03-26T17:24:14.177Z,21.03
2019-03-26T17:26:42.454Z,21.29
2019-03-26T17:29:10.802Z,21.14
2019-03-26T17:31:39.061Z,21.14
2019-03-26T17:34:07.324Z,22.59
2019-03-26T17:36:35.673Z,21.90
2019-03-26T17:39:05.862Z,22.30
2019-03-26T17:41:34.164Z,22.17
2019-03-26T17:44:02.425Z,22.49
2019-03-26T17:46:30.686Z,22.78
2019-03-26T17:48:58.991Z,21.06
2019-03-26T17:51:27.273Z,22.37
2019-03-26T17:53:55.554Z,22.91
2019-03-26T17:56:23.814Z,22.96
2019-03-26T17:58:52.101Z,22.48
2019-03-26T18:01:20.360Z,23.03
2019-03-26T18:03:48.799Z,23.30
2019-03-26T18:06:17.216Z,22.36
2019-03-26T18:08:45.715Z,21.93
2019-03-26T18:11:14.151Z,21.26
2019-03-26T18:13:42.590Z,21.78
2019-03-26T18:16:10.853Z,21.56
2019-03-26T18:18:39.127Z,21.79
2019-03-26T18:21:08.204Z,21.55
2019-03-26T18:23:36.549Z,22.54
2019-03-26T18:26:04.914Z,20.91
2019-03-26T18:28:33.176Z,22.00
2019-03-26T18:31:01.438Z,22.03
2019-03-26T18:33:29.716Z,21.93
2019-03-26T18:35:58.020Z,23.19
2019-03-26T18:38:26.288Z,23.57
2019-03-26T18:40:54.564Z,23.41
2019-03-26T18:43:22.828Z,22.33
2019-03-26T18:45:51.119Z,21.53
2019-03-26T18:48:19.865Z,21.89
2019-03-26T18:50:48.144Z,22.18
2019-03-26T18:53:16.435Z,22.50
2019-03-26T18:55:44.702Z,22.33
2019-03-26T18:58:13.047Z,23.26
2019-03-26T19:00:41.338Z,21.45
2019-03-26T19:03:09.885Z,21.72
2019-03-26T19:05:38.163Z,21.52
2019-03-26T19:08:06.496Z,21.95
2019-03-26T19:10:36.112Z,22.11
2019-03-26T19:13:18.017Z,22.19
2019-03-26T19:15:34.813Z,21.71
2019-03-26T19:18:03.228Z,22.33
2019-03-26T19:20:31.497Z,22.23
2019-03-26T19:22:59.847Z,21.38
2019-03-26T19:25:28.168Z,22.57
2019-03-26T19:27:56.488Z,22.00
2019-03-26T19:30:24.773Z,22.14
2019-03-26T19:32:53.055Z,21.80
2019-03-26T19:35:21.332Z,21.60
2019-03-26T19:37:50.156Z,20.95
2019-03-26T19:40:22.274Z,21.81
2019-03-26T19:42:52.110Z,21.88
2019-03-26T19:45:20.682Z,21.17
2019-03-26T19:47:50.580Z,20.76
2019-03-26T19:50:19.086Z,21.46
2019-03-26T19:52:47.594Z,22.19
2019-03-26T19:55:19.201Z,22.29
2019-03-26T19:57:47.555Z,22.04
2019-03-26T20:00:16.773Z,21.09
2019-03-26T20:02:45.132Z,21.53
2019-03-26T20:05:13.476Z,21.85
2019-03-26T20:07:41.772Z,21.91
2019-03-26T20:10:11.386Z,21.35
2019-03-26T20:12:39.638Z,22.08
2019-03-26T20:15:09.493Z,22.40
2019-03-26T20:17:37.763Z,20.87
2019-03-26T20:20:06.858Z,22.24
2019-03-26T20:22:35.131Z,22.09
2019-03-26T20:25:04.061Z,21.79
2019-03-26T20:27:32.322Z,21.65
2019-03-26T20:30:00.600Z,22.10
2019-03-26T20:32:39.053Z,21.09
2019-03-26T20:35:11.415Z,21.21
2019-03-26T20:37:39.743Z,21.07
2019-03-26T20:40:09.450Z,20.76
2019-03-26T20:42:38.389Z,20.88
2019-03-26T20:45:27.578Z,21.40
2019-03-26T20:47:55.878Z,21.11
2019-03-26T20:50:24.269Z,20.55
2019-03-26T20:52:52.545Z,20.45
2019-03-26T20:55:32.109Z,21.02
2019-03-26T20:58:00.787Z,20.62
2019-03-26T21:00:42.383Z,20.49
2019-03-26T21:03:10.757Z,20.62
2019-03-26T21:05:39.554Z,20.42
2019-03-26T21:08:07.914Z,21.51
2019-03-26T21:10:36.243Z,21.97
2019-03-26T21:13:04.661Z,21.32
2019-03-26T21:15:32.924Z,21.78
2019-03-26T21:18:01.231Z,22.10
2019-03-26T21:20:29.511Z,21.50
2019-03-26T21:22:57.797Z,22.84
2019-03-26T21:25:26.074Z,22.67
2019-03-26T21:27:54.370Z,22.13
2019-03-26T21:30:22.698Z,22.46
2019-03-26T21:32:50.978Z,20.97
2019-03-26T21:35:19.444Z,22.11
2019-03-26T21:37:47.706Z,21.52
2019-03-26T21:40:16.231Z,21.05
2019-03-26T21:42:44.542Z,19.53
2019-03-26T21:45:13.174Z,19.02
2019-03-26T21:47:41.462Z,19.32
2019-03-26T21:50:10.910Z,20.14
2019-03-26T21:52:39.188Z,18.78
2019-03-26T21:55:08.607Z,20.13
2019-03-26T21:57:36.897Z,21.86
2019-03-26T22:00:09.000Z,22.38
2019-03-26T22:05:07.131Z,22.32
2019-03-26T22:07:35.404Z,21.90
2019-03-26T22:10:04.633Z,20.75
2019-03-26T22:12:32.948Z,21.92
2019-03-26T22:15:01.317Z,22.01
2019-03-26T22:17:29.603Z,21.93
2019-03-26T22:19:57.901Z,21.07
2019-03-26T22:22:26.181Z,21.35
2019-03-26T22:24:54.493Z,20.59
2019-03-26T22:27:22.795Z,19.27
2019-03-26T22:29:51.090Z,19.75
2019-03-26T22:32:19.451Z,19.79
2019-03-26T22:34:47.681Z,19.69
2019-03-26T22:37:16.025Z,19.92
2019-03-26T22:39:44.317Z,20.30
2019-03-26T22:42:12.731Z,21.13
2019-03-26T22:44:41.121Z,20.61
2019-03-26T22:47:09.417Z,20.84
2019-03-26T22:49:37.702Z,19.15
2019-03-26T22:52:06.000Z,19.55
2019-03-26T22:54:34.296Z,19.19
2019-03-26T22:57:02.590Z,19.28
2019-03-26T22:59:30.872Z,18.84
2019-03-26T23:01:59.221Z,18.83
2019-03-26T23:04:27.521Z,18.11
2019-03-26T23:06:55.785Z,19.37
2019-03-26T23:09:24.067Z,18.90
2019-03-26T23:11:52.370Z,20.15
2019-03-26T23:14:20.684Z,20.63
2019-03-26T23:16:49.028Z,21.11
2019-03-26T23:19:17.290Z,21.60
2019-03-26T23:21:45.574Z,19.63
2019-03-26T23:24:13.823Z,18.80
2019-03-26T23:26:42.104Z,18.51
2019-03-26T23:29:10.362Z,20.12
2019-03-26T23:31:38.655Z,19.36
2019-03-26T23:34:06.989Z,18.97
2019-03-26T23:36:35.281Z,20.04
2019-03-26T23:39:04.527Z,21.04
2019-03-26T23:41:32.887Z,20.86
2019-03-26T23:44:01.182Z,21.16
2019-03-26T23:46:29.449Z,21.85
2019-03-26T23:48:57.723Z,21.82
2019-03-26T23:51:25.999Z,21.99
2019-03-26T23:53:54.302Z,20.87
2019-03-26T23:56:22.575Z,20.35
2019-03-26T23:58:50.925Z,21.30
